Time;durP1;ratioP1;P1;durP2;ratioP2;P2;SDS_P1;SDS_P2;PMS_P1;PMS_P2;Temp;Humidity;BMP_temperature;BMP_pressure;BME280_temperature;BME280_humidity;BME280_pressure;Samples;Min_cycle;Max_cycle;Signal;HPM_P1;HPM_P2
2022/03/11 00:01:22;;;;;;;9.30;9.00;;;3.60;99.90;;;;;;5083706;28;20304;-78
2022/03/11 00:03:51;;;;;;;8.93;8.73;;;3.60;99.90;;;;;;5069035;28;20262;-79
2022/03/11 00:06:20;;;;;;;9.23;8.93;;;3.50;99.90;;;;;;5085064;28;20234;-79
2022/03/11 00:08:48;;;;;;;9.40;9.10;;;3.50;99.90;;;;;;5115626;22;20228;-79
2022/03/11 00:11:16;;;;;;;9.30;9.00;;;3.40;99.90;;;;;;5117386;27;20216;-79
2022/03/11 00:13:43;;;;;;;9.03;8.83;;;3.40;99.90;;;;;;5117218;27;20247;-78
2022/03/11 00:16:13;;;;;;;9.37;9.07;;;3.40;99.90;;;;;;5118115;27;20236;-79
2022/03/11 00:18:41;;;;;;;9.23;8.93;;;3.30;99.90;;;;;;5117795;27;20239;-78
2022/03/11 00:21:12;;;;;;;8.87;8.67;;;3.30;99.90;;;;;;5118531;27;20274;-79
2022/03/11 00:23:40;;;;;;;8.93;8.73;;;3.30;99.90;;;;;;5118150;27;20240;-79
2022/03/11 00:26:08;;;;;;;9.00;8.80;;;3.20;99.90;;;;;;5118212;27;20320;-79
2022/03/11 00:28:36;;;;;;;9.30;9.00;;;3.20;99.90;;;;;;5118185;27;20239;-79
2022/03/11 00:31:04;;;;;;;8.90;8.70;;;3.20;99.90;;;;;;5118369;27;20220;-79
2022/03/11 00:33:34;;;;;;;9.40;9.10;;;3.20;99.90;;;;;;5117854;27;20258;-79
2022/03/11 00:36:02;;;;;;;8.87;8.67;;;3.10;99.90;;;;;;5117509;28;20244;-78
2022/03/11 00:38:29;;;;;;;9.07;8.87;;;3.10;99.90;;;;;;5117218;27;20237;-78
2022/03/11 00:40:58;;;;;;;9.00;8.80;;;3.10;99.90;;;;;;5117569;28;20224;-79
2022/03/11 00:43:26;;;;;;;9.17;8.93;;;3.00;99.90;;;;;;5118240;27;20275;-80
2022/03/11 00:45:54;;;;;;;8.87;8.67;;;3.00;99.90;;;;;;5120175;28;20231;-79
2022/03/11 00:48:22;;;;;;;9.10;8.90;;;2.90;99.90;;;;;;5119718;27;20240;-79
2022/03/11 00:50:51;;;;;;;9.00;8.80;;;2.90;99.90;;;;;;5120099;28;20240;-80
2022/03/11 00:53:19;;;;;;;9.03;8.83;;;2.90;99.90;;;;;;5119220;28;20258;-80
2022/03/11 00:55:47;;;;;;;9.13;8.90;;;2.80;99.90;;;;;;5119668;28;20224;-80
2022/03/11 00:58:15;;;;;;;8.90;8.70;;;2.80;99.90;;;;;;5119538;27;20305;-80
2022/03/11 01:00:42;;;;;;;9.00;8.80;;;2.70;99.90;;;;;;5119157;27;20217;-80
2022/03/11 01:03:10;;;;;;;9.00;8.80;;;2.70;99.90;;;;;;5118478;27;20228;-80
2022/03/11 01:05:38;;;;;;;9.20;8.90;;;2.60;99.90;;;;;;5118841;27;20227;-80
2022/03/11 01:08:08;;;;;;;8.90;8.70;;;2.50;99.90;;;;;;5118946;27;20247;-80
2022/03/11 01:10:35;;;;;;;9.60;9.30;;;2.50;99.90;;;;;;5119241;27;21032;-80
2022/03/11 01:13:03;;;;;;;9.20;8.90;;;2.50;99.90;;;;;;5119017;28;20282;-79
2022/03/11 01:15:31;;;;;;;8.87;8.67;;;2.50;99.90;;;;;;5119913;27;20225;-79
2022/03/11 01:17:59;;;;;;;9.23;8.93;;;2.40;99.90;;;;;;5119217;27;20235;-80
2022/03/11 01:20:26;;;;;;;9.00;8.80;;;2.40;99.90;;;;;;5123867;27;20243;-79
2022/03/11 01:22:54;;;;;;;8.93;8.73;;;2.40;99.90;;;;;;5122210;27;20224;-80
2022/03/11 01:25:24;;;;;;;8.90;8.70;;;2.30;99.90;;;;;;5123285;27;20236;-80
2022/03/11 01:27:51;;;;;;;9.43;9.13;;;2.30;99.90;;;;;;5122974;27;20237;-80
2022/03/11 01:30:19;;;;;;;8.70;8.50;;;2.30;99.90;;;;;;5122817;27;20229;-80
2022/03/11 01:32:47;;;;;;;9.00;8.80;;;2.30;99.90;;;;;;5122998;28;20233;-79
2022/03/11 01:35:15;;;;;;;8.90;8.70;;;2.20;99.90;;;;;;5122716;28;20235;-80
2022/03/11 01:37:43;;;;;;;8.90;8.70;;;2.10;99.90;;;;;;5131001;27;20225;-79
2022/03/11 01:40:11;;;;;;;8.83;8.63;;;2.10;99.90;;;;;;5126698;27;20229;-80
2022/03/11 01:42:40;;;;;;;9.00;8.80;;;2.00;99.90;;;;;;5124998;27;20236;-79
2022/03/11 01:45:09;;;;;;;8.83;8.63;;;2.00;99.90;;;;;;5124529;27;20228;-79
2022/03/11 01:47:37;;;;;;;8.97;8.77;;;2.00;99.90;;;;;;5124012;27;21118;-80
2022/03/11 01:50:06;;;;;;;8.60;8.40;;;1.90;99.90;;;;;;5123445;27;20232;-79
2022/03/11 01:52:35;;;;;;;8.80;8.60;;;2.00;99.90;;;;;;5123544;27;20240;-79
2022/03/11 01:55:03;;;;;;;8.83;8.63;;;1.90;99.90;;;;;;5129544;27;20225;-80
2022/03/11 01:57:33;;;;;;;8.93;8.73;;;1.90;99.90;;;;;;5126895;27;20256;-80
2022/03/11 02:00:04;;;;;;;9.00;8.80;;;1.90;99.90;;;;;;5122730;27;20228;-80
2022/03/11 02:02:33;;;;;;;9.23;8.93;;;1.90;99.90;;;;;;5122754;28;20232;-80
2022/03/11 02:05:02;;;;;;;8.93;8.73;;;1.80;99.90;;;;;;5122398;27;20228;-80
2022/03/11 02:07:30;;;;;;;8.80;8.60;;;1.80;99.90;;;;;;5122914;27;20234;-79
2022/03/11 02:09:58;;;;;;;8.70;8.50;;;1.80;99.90;;;;;;5122911;27;20240;-80
2022/03/11 02:12:30;;;;;;;8.80;8.60;;;1.80;99.90;;;;;;5122522;27;20239;-79
2022/03/11 02:14:58;;;;;;;8.90;8.70;;;1.80;99.90;;;;;;5123216;28;20331;-79
2022/03/11 02:17:27;;;;;;;8.90;8.70;;;1.70;99.90;;;;;;5125126;27;20375;-79
2022/03/11 02:19:55;;;;;;;8.90;8.70;;;1.70;99.90;;;;;;5129164;27;20290;-80
2022/03/11 02:22:25;;;;;;;9.03;8.83;;;1.60;99.90;;;;;;5134037;27;20225;-79
2022/03/11 02:24:55;;;;;;;8.90;8.70;;;1.50;99.90;;;;;;5134805;27;20323;-79
2022/03/11 02:27:24;;;;;;;8.73;8.53;;;1.50;99.90;;;;;;5131383;27;20252;-80
2022/03/11 02:29:52;;;;;;;8.57;8.37;;;1.40;99.90;;;;;;5135335;27;20235;-79
2022/03/11 02:32:19;;;;;;;8.80;8.60;;;1.40;99.90;;;;;;5124766;27;20224;-79
2022/03/11 02:34:47;;;;;;;8.77;8.57;;;1.40;99.90;;;;;;5122620;27;20282;-79
2022/03/11 02:37:15;;;;;;;9.00;8.80;;;1.40;99.90;;;;;;5122584;27;20233;-80
2022/03/11 02:39:43;;;;;;;8.70;8.50;;;1.40;99.90;;;;;;5122645;27;20271;-79
2022/03/11 02:42:12;;;;;;;8.93;8.73;;;1.30;99.90;;;;;;5122452;27;20232;-79
2022/03/11 02:44:41;;;;;;;9.00;8.80;;;1.30;99.90;;;;;;5121824;27;20241;-79
2022/03/11 02:47:09;;;;;;;8.70;8.50;;;1.20;99.90;;;;;;5121394;27;20233;-80
2022/03/11 02:49:37;;;;;;;9.17;8.90;;;1.20;99.90;;;;;;5121108;27;20229;-80
2022/03/11 02:52:06;;;;;;;9.00;8.80;;;1.20;99.90;;;;;;5120962;27;20240;-79
2022/03/11 02:54:34;;;;;;;8.93;8.73;;;1.20;99.90;;;;;;5120875;27;20240;-79
2022/03/11 02:57:01;;;;;;;8.57;8.37;;;1.20;99.90;;;;;;5121602;28;20221;-80
2022/03/11 02:59:31;;;;;;;8.43;8.23;;;1.10;99.90;;;;;;5123288;27;20232;-79
2022/03/11 03:01:59;;;;;;;8.80;8.60;;;1.10;99.90;;;;;;5122027;27;20229;-80
2022/03/11 03:04:26;;;;;;;8.80;8.60;;;1.10;99.90;;;;;;5121209;27;20235;-79
2022/03/11 03:06:54;;;;;;;8.90;8.70;;;1.10;99.90;;;;;;5120992;28;20528;-79
2022/03/11 03:09:22;;;;;;;8.77;8.57;;;1.00;99.90;;;;;;5119938;27;20233;-79
2022/03/11 03:11:50;;;;;;;9.27;8.97;;;0.90;99.90;;;;;;5121417;27;20232;-79
2022/03/11 03:14:18;;;;;;;8.90;8.70;;;1.00;99.90;;;;;;5123036;27;20236;-79
2022/03/11 03:16:47;;;;;;;9.27;8.97;;;1.00;99.90;;;;;;5121869;27;20228;-80
2022/03/11 03:19:15;;;;;;;9.00;8.80;;;0.90;99.90;;;;;;5122009;28;20244;-80
2022/03/11 03:21:43;;;;;;;9.30;9.00;;;0.80;99.90;;;;;;5122650;27;20236;-79
2022/03/11 03:24:11;;;;;;;9.20;8.90;;;0.80;99.90;;;;;;5122245;27;20233;-79
2022/03/11 03:26:39;;;;;;;8.97;8.77;;;0.90;99.90;;;;;;5121217;27;20228;-80
2022/03/11 03:29:06;;;;;;;8.73;8.53;;;0.80;99.90;;;;;;5122765;27;20237;-80
2022/03/11 03:31:34;;;;;;;8.90;8.70;;;0.80;99.90;;;;;;5121538;27;20228;-80
2022/03/11 03:34:03;;;;;;;8.77;8.57;;;0.80;99.90;;;;;;5119879;27;20732;-80
2022/03/11 03:36:31;;;;;;;8.80;8.60;;;0.80;99.90;;;;;;5118268;27;20239;-80
2022/03/11 03:38:59;;;;;;;8.80;8.60;;;0.80;99.90;;;;;;5118702;27;20225;-80
2022/03/11 03:41:27;;;;;;;8.77;8.57;;;0.70;99.90;;;;;;5118094;27;20229;-80
2022/03/11 03:43:54;;;;;;;8.70;8.50;;;0.70;99.90;;;;;;5118854;27;20276;-79
2022/03/11 03:46:22;;;;;;;8.80;8.60;;;0.70;99.90;;;;;;5118465;27;20224;-80
2022/03/11 03:48:50;;;;;;;8.90;8.70;;;0.60;99.90;;;;;;5118521;27;20270;-80
2022/03/11 03:51:19;;;;;;;9.27;8.97;;;0.60;99.90;;;;;;5119346;27;20228;-80
2022/03/11 03:53:47;;;;;;;8.90;8.70;;;0.50;99.90;;;;;;5119075;27;20221;-80
2022/03/11 03:56:15;;;;;;;8.87;8.67;;;0.40;99.90;;;;;;5118771;27;20228;-80
2022/03/11 03:58:42;;;;;;;9.20;8.90;;;0.50;99.90;;;;;;5119274;27;20232;-80
2022/03/11 04:01:10;;;;;;;8.77;8.57;;;0.50;99.90;;;;;;5119170;27;20221;-80
2022/03/11 04:03:38;;;;;;;9.20;8.90;;;0.50;99.90;;;;;;5119461;27;20256;-80
2022/03/11 04:06:06;;;;;;;9.37;9.07;;;0.30;99.90;;;;;;5119375;27;20229;-81
2022/03/11 04:08:35;;;;;;;9.37;9.07;;;0.30;99.90;;;;;;5118593;28;20232;-80
2022/03/11 04:11:03;;;;;;;9.87;9.57;;;0.30;99.90;;;;;;5120329;27;20233;-81
2022/03/11 04:13:30;;;;;;;9.50;9.20;;;0.20;99.90;;;;;;5119928;27;20236;-81
2022/03/11 04:15:58;;;;;;;9.20;8.90;;;0.10;99.90;;;;;;5119889;27;20243;-80
2022/03/11 04:18:26;;;;;;;9.27;8.97;;;0.20;99.90;;;;;;5119567;27;20228;-81
2022/03/11 04:20:54;;;;;;;9.40;9.10;;;0.10;99.90;;;;;;5119597;28;20224;-80
2022/03/11 04:23:22;;;;;;;9.33;9.03;;;0.10;99.90;;;;;;5119740;27;20237;-80
2022/03/11 04:25:51;;;;;;;9.20;8.90;;;0.10;99.90;;;;;;5119911;27;20235;-80
2022/03/11 04:28:19;;;;;;;9.37;9.07;;;0.10;99.90;;;;;;5119744;27;20237;-80
2022/03/11 04:30:47;;;;;;;8.83;8.63;;;0.00;99.90;;;;;;5119634;28;20294;-80
2022/03/11 04:33:15;;;;;;;8.93;8.73;;;0.00;99.90;;;;;;5119533;27;20229;-80
2022/03/11 04:35:43;;;;;;;9.00;8.80;;;0.00;99.90;;;;;;5119539;27;20239;-80
2022/03/11 04:38:12;;;;;;;8.70;8.50;;;0.10;99.90;;;;;;5119677;28;20224;-80
2022/03/11 04:40:40;;;;;;;8.97;8.77;;;0.00;99.90;;;;;;5119395;27;20324;-81
2022/03/11 04:43:10;;;;;;;8.90;8.70;;;0.10;99.90;;;;;;5119665;27;20298;-80
2022/03/11 04:45:37;;;;;;;9.27;8.97;;;0.00;99.90;;;;;;5118752;27;20236;-80
2022/03/11 04:48:06;;;;;;;9.10;8.90;;;0.00;99.90;;;;;;5126383;27;20240;-80
2022/03/11 04:50:34;;;;;;;9.10;8.90;;;-0.10;99.90;;;;;;5124383;27;20319;-80
2022/03/11 04:53:03;;;;;;;9.20;8.90;;;-0.10;99.90;;;;;;5127734;27;20259;-80
2022/03/11 04:55:31;;;;;;;9.00;8.80;;;-0.10;99.90;;;;;;5126437;27;20237;-80
2022/03/11 04:57:58;;;;;;;8.80;8.60;;;-0.10;99.90;;;;;;5124933;28;20719;-80
2022/03/11 05:00:27;;;;;;;8.30;8.10;;;-0.10;99.90;;;;;;5125272;27;20588;-80
2022/03/11 05:02:55;;;;;;;8.90;8.70;;;-0.10;99.90;;;;;;5124474;27;20278;-80
2022/03/11 05:05:23;;;;;;;9.00;8.80;;;-0.10;99.90;;;;;;5123688;27;20232;-80
2022/03/11 05:07:51;;;;;;;8.97;8.77;;;-0.20;99.90;;;;;;5122491;27;20228;-81
2022/03/11 05:10:18;;;;;;;9.30;9.00;;;-0.20;99.90;;;;;;5125255;27;20225;-81
2022/03/11 05:12:46;;;;;;;9.20;8.90;;;-0.20;99.90;;;;;;5123695;27;20224;-81
2022/03/11 05:15:14;;;;;;;9.10;8.90;;;-0.20;99.90;;;;;;5123210;27;20238;-80
2022/03/11 05:17:43;;;;;;;9.07;8.83;;;-0.30;99.90;;;;;;5123053;27;20232;-81
2022/03/11 05:20:12;;;;;;;9.97;9.67;;;-0.30;99.90;;;;;;5123052;27;20290;-80
2022/03/11 05:22:41;;;;;;;10.13;9.83;;;-0.40;99.90;;;;;;5122824;27;20753;-80
2022/03/11 05:25:10;;;;;;;10.07;9.77;;;-0.40;99.90;;;;;;5123054;27;20223;-80
2022/03/11 05:27:38;;;;;;;10.67;10.37;;;-0.50;99.90;;;;;;5122072;27;20247;-80
2022/03/11 05:30:08;;;;;;;10.00;9.70;;;-0.40;99.90;;;;;;5126119;27;20249;-81
2022/03/11 05:32:43;;;;;;;10.40;10.10;;;-0.50;99.90;;;;;;5126812;27;20310;-80
2022/03/11 05:35:12;;;;;;;10.43;10.13;;;-0.40;99.90;;;;;;5126934;27;20240;-81
2022/03/11 05:37:40;;;;;;;10.43;10.13;;;-0.50;99.90;;;;;;5127401;27;20217;-80
2022/03/11 05:40:10;;;;;;;9.87;9.57;;;-0.50;99.90;;;;;;5127127;27;20270;-81
2022/03/11 05:42:38;;;;;;;10.03;9.73;;;-0.50;99.90;;;;;;5124308;27;20237;-80
2022/03/11 05:45:08;;;;;;;10.00;9.70;;;-0.50;99.90;;;;;;5126041;27;20224;-80
2022/03/11 05:47:36;;;;;;;9.83;9.53;;;-0.60;99.90;;;;;;5123355;27;20292;-80
2022/03/11 05:50:10;;;;;;;9.70;9.40;;;-0.50;99.90;;;;;;5125632;27;20282;-80
2022/03/11 05:52:39;;;;;;;9.90;9.60;;;-0.50;99.90;;;;;;5124867;27;20231;-81
2022/03/11 05:55:07;;;;;;;9.90;9.60;;;-0.50;99.90;;;;;;5123617;27;20592;-80
2022/03/11 05:57:36;;;;;;;9.80;9.50;;;-0.50;99.90;;;;;;5122636;28;20225;-80
2022/03/11 06:00:06;;;;;;;9.53;9.23;;;-0.40;99.90;;;;;;5129472;27;20220;-80
2022/03/11 06:02:38;;;;;;;9.70;9.40;;;-0.50;99.90;;;;;;5139308;27;20229;-80
2022/03/11 06:05:10;;;;;;;9.53;9.23;;;-0.40;99.90;;;;;;5135538;27;20229;-80
2022/03/11 06:07:39;;;;;;;9.47;9.17;;;-0.40;99.90;;;;;;5123852;27;20225;-81
2022/03/11 06:10:08;;;;;;;9.70;9.40;;;-0.40;99.90;;;;;;5136138;22;20224;-79
2022/03/11 06:15:22;;;;;;;10.10;9.80;;;-0.30;99.90;;;;;;5102548;28;20455;-84
2022/03/11 06:24:28;;;;;;;10.00;9.70;;;-0.10;99.90;;;;;;5125750;28;20228;-84
2022/03/11 06:39:25;;;;;;;;;;;;;;;;;;;;;
2022/03/11 06:46:25;;;;;;;9.90;9.60;;;0.30;99.90;;;;;;5122079;28;20217;-83
2022/03/11 07:35:49;;;;;;;9.57;9.27;;;1.30;99.90;;;;;;4928826;28;20238;-82
2022/03/11 07:39:09;;;;;;;9.63;9.33;;;1.40;99.90;;;;;;4989747;28;20229;-83
2022/03/11 07:41:50;;;;;;;9.67;9.37;;;1.40;99.90;;;;;;4897867;29;20267;-83
2022/03/11 07:44:18;;;;;;;9.70;9.40;;;1.50;99.90;;;;;;4897130;29;20478;-83
2022/03/11 07:57:12;;;;;;;9.93;9.63;;;2.20;99.90;;;;;;5129449;27;20727;-84
2022/03/11 07:59:53;;;;;;;9.93;9.63;;;2.30;99.90;;;;;;5163906;27;20317;-83
2022/03/11 08:06:00;;;;;;;9.53;9.23;;;2.60;99.90;;;;;;5198520;27;20211;-81
2022/03/11 08:08:49;;;;;;;9.87;9.57;;;2.70;99.90;;;;;;5195564;27;20270;-83
2022/03/11 08:17:18;;;;;;;9.83;9.53;;;3.20;99.90;;;;;;5167635;27;20253;-85
2022/03/11 08:27:53;;;;;;;9.60;9.30;;;3.50;99.90;;;;;;5149795;27;20314;-86
2022/03/11 08:30:47;;;;;;;9.50;9.20;;;3.60;99.90;;;;;;5094810;28;20233;-83
2022/03/11 08:56:15;;;;;;;9.70;9.40;;;5.00;99.90;;;;;;5104466;28;20317;-83
2022/03/11 09:01:21;;;;;;;9.30;9.00;;;5.10;99.90;;;;;;5096047;22;20226;-84
2022/03/11 09:03:51;;;;;;;9.80;9.50;;;5.20;99.90;;;;;;5037552;28;20236;-83
2022/03/11 09:06:31;;;;;;;9.77;9.47;;;5.30;99.90;;;;;;5038071;28;20259;-83
2022/03/11 09:08:59;;;;;;;9.80;9.50;;;5.50;99.90;;;;;;5041773;28;20231;-82
2022/03/11 09:11:38;;;;;;;9.70;9.40;;;5.90;99.90;;;;;;5060271;28;20235;-88
2022/03/11 09:14:51;;;;;;;9.67;9.37;;;6.60;99.90;;;;;;5063071;28;20245;-91
2022/03/11 09:42:06;;;;;;;10.33;10.03;;;7.30;99.50;;;;;;4875190;29;20219;-84
2022/03/11 09:45:03;;;;;;;10.30;10.00;;;7.40;99.00;;;;;;4963295;28;20236;-82
2022/03/11 10:38:34;;;;;;;;;;;;;;;;;;;;;
2022/03/11 10:41:32;;;;;;;10.23;9.93;;;9.90;86.30;;;;;;4997691;28;20260;-83
2022/03/11 11:14:10;;;;;;;;;;;;;;;;;;;;;
2022/03/11 11:28:30;;;;;;;10.40;10.10;;;11.60;79.00;;;;;;4897948;29;20216;-84
2022/03/11 12:02:48;;;;;;;10.30;10.00;;;12.30;72.40;;;;;;4852262;29;20245;-82
2022/03/11 12:14:50;;;;;;;10.60;10.30;;;12.70;72.70;;;;;;5063817;28;20233;-82
2022/03/11 12:21:09;;;;;;;10.20;9.90;;;13.00;71.60;;;;;;5205198;22;20235;-82
2022/03/11 12:23:37;;;;;;;10.20;9.90;;;12.90;71.70;;;;;;5047013;28;20286;-82
2022/03/11 12:26:13;;;;;;;10.40;10.10;;;13.00;71.80;;;;;;5069905;28;20234;-82
2022/03/11 12:28:44;;;;;;;10.37;10.07;;;13.20;73.10;;;;;;5062076;28;20326;-81
2022/03/11 12:31:24;;;;;;;10.33;10.03;;;13.50;74.00;;;;;;5069950;28;20227;-81
2022/03/11 12:33:57;;;;;;;10.30;10.00;;;13.90;70.30;;;;;;5058538;28;20258;-83
2022/03/11 12:36:27;;;;;;;9.97;9.67;;;13.70;69.00;;;;;;5058352;28;20234;-80
2022/03/11 12:38:55;;;;;;;10.27;9.97;;;13.40;67.50;;;;;;5058386;28;20330;-81
2022/03/11 12:41:27;;;;;;;10.20;9.90;;;13.20;69.90;;;;;;5060516;28;20235;-82
2022/03/11 12:43:58;;;;;;;10.47;10.17;;;13.10;69.70;;;;;;5075910;28;20325;-83
2022/03/11 12:46:27;;;;;;;10.50;10.20;;;13.10;69.70;;;;;;5094137;28;20293;-82
2022/03/11 12:48:57;;;;;;;10.10;9.80;;;13.20;69.50;;;;;;5085302;28;20226;-81
2022/03/11 12:51:26;;;;;;;10.30;10.00;;;13.10;70.20;;;;;;5083975;28;20237;-82
2022/03/11 12:53:55;;;;;;;10.17;9.87;;;13.10;68.80;;;;;;5091642;28;20202;-84
2022/03/11 12:56:24;;;;;;;10.40;10.10;;;12.80;71.30;;;;;;5102240;28;20278;-84
2022/03/11 12:58:54;;;;;;;10.20;9.90;;;13.20;75.70;;;;;;5101281;28;20232;-83
2022/03/11 13:01:23;;;;;;;10.27;9.97;;;13.70;84.00;;;;;;5100923;28;20210;-82
2022/03/11 13:03:53;;;;;;;10.43;10.13;;;13.80;78.80;;;;;;5101076;28;20920;-84
2022/03/11 13:06:23;;;;;;;10.20;9.90;;;14.40;74.80;;;;;;5097852;28;20246;-82
2022/03/11 13:08:52;;;;;;;10.43;10.13;;;14.40;72.20;;;;;;5086040;28;20234;-82
2022/03/11 13:11:21;;;;;;;10.07;9.77;;;14.50;71.20;;;;;;5082898;28;20233;-82
2022/03/11 13:13:50;;;;;;;10.57;10.27;;;14.30;71.00;;;;;;5082427;28;20226;-82
2022/03/11 13:16:18;;;;;;;10.40;10.10;;;14.60;68.70;;;;;;5083367;28;20233;-83
2022/03/11 13:18:53;;;;;;;10.50;10.20;;;14.60;70.30;;;;;;5083104;28;20261;-82
2022/03/11 13:21:23;;;;;;;10.60;10.30;;;14.80;69.90;;;;;;5081498;28;20241;-81
2022/03/11 13:23:58;;;;;;;10.50;10.20;;;14.80;71.60;;;;;;5082764;28;20231;-83
2022/03/11 13:26:27;;;;;;;10.38;10.07;;;15.10;70.20;;;;;;5083721;28;20296;-82
2022/03/11 13:28:58;;;;;;;10.45;10.15;;;15.10;68.80;;;;;;5083608;28;20226;-82
2022/03/11 13:31:34;;;;;;;10.18;9.88;;;15.20;68.50;;;;;;5089509;28;20260;-83
2022/03/11 13:34:12;;;;;;;10.52;10.23;;;15.30;68.90;;;;;;5092415;28;20222;-82
2022/03/11 13:36:43;;;;;;;10.10;9.80;;;15.60;68.10;;;;;;5094622;28;20323;-83
2022/03/11 13:39:35;;;;;;;9.90;9.60;;;15.60;66.70;;;;;;5091664;28;20256;-82
2022/03/11 13:42:08;;;;;;;10.02;9.73;;;15.30;64.80;;;;;;5091086;28;20324;-84
2022/03/11 13:48:12;;;;;;;10.00;9.70;;;15.00;65.60;;;;;;5088977;28;20228;-85
2022/03/11 13:50:53;;;;;;;10.35;10.05;;;14.60;66.00;;;;;;5091731;28;20240;-84
2022/03/11 13:53:36;;;;;;;9.98;9.68;;;14.70;66.20;;;;;;5094335;28;20240;-84
2022/03/11 13:59:43;;;;;;;10.18;9.88;;;15.30;66.30;;;;;;5080012;28;20218;-85
2022/03/11 14:02:14;;;;;;;10.40;10.10;;;15.80;64.80;;;;;;5092771;28;20337;-85
2022/03/11 14:04:42;;;;;;;10.40;10.10;;;15.70;64.20;;;;;;5090999;28;20234;-83
2022/03/11 14:07:15;;;;;;;10.43;10.13;;;15.50;64.30;;;;;;5089542;28;20226;-83
2022/03/11 14:10:01;;;;;;;10.30;10.00;;;15.70;64.60;;;;;;5086797;28;20222;-84
2022/03/11 14:12:32;;;;;;;10.63;10.32;;;15.60;64.80;;;;;;5083402;28;20236;-83
2022/03/11 14:21:40;;;;;;;10.35;10.05;;;14.70;63.90;;;;;;5079542;28;20240;-84
2022/03/11 14:24:09;;;;;;;10.30;10.00;;;14.90;63.90;;;;;;5081308;28;20285;-83
2022/03/11 14:26:40;;;;;;;10.30;10.00;;;14.90;61.60;;;;;;5081269;28;20230;-84
2022/03/11 14:32:48;;;;;;;10.17;9.87;;;14.60;64.50;;;;;;5081493;28;20248;-84
2022/03/11 14:42:06;;;;;;;10.40;10.10;;;15.60;63.80;;;;;;5080793;28;20237;-84
2022/03/11 14:49:08;;;;;;;9.77;9.48;;;15.20;63.20;;;;;;4978452;28;20245;-83
2022/03/11 14:51:54;;;;;;;10.00;9.70;;;15.40;63.30;;;;;;5079695;28;20230;-84
2022/03/11 14:55:35;;;;;;;10.10;9.80;;;16.00;63.40;;;;;;5084432;28;20240;-83
2022/03/11 15:01:32;;;;;;;9.80;9.50;;;16.40;63.30;;;;;;4974821;28;20240;-84
2022/03/11 15:04:13;;;;;;;10.20;9.90;;;16.10;63.30;;;;;;5083474;28;20230;-83
2022/03/11 15:06:41;;;;;;;9.82;9.52;;;15.80;63.70;;;;;;5082333;28;20226;-82
2022/03/11 15:09:09;;;;;;;9.95;9.65;;;15.60;64.10;;;;;;5085702;28;20314;-82
2022/03/11 15:12:23;;;;;;;9.80;9.50;;;15.80;63.70;;;;;;5086079;28;20230;-83
2022/03/11 15:15:48;;;;;;;10.10;9.80;;;15.60;63.10;;;;;;5086675;28;20297;-82
2022/03/11 15:22:40;;;;;;;9.93;9.63;;;16.10;66.10;;;;;;5025826;28;20236;-82
2022/03/11 15:25:30;;;;;;;10.50;10.20;;;16.50;67.20;;;;;;5083757;28;20329;-83
2022/03/11 15:28:09;;;;;;;10.40;10.10;;;16.10;67.00;;;;;;5080738;28;20226;-80
2022/03/11 15:34:17;;;;;;;10.40;10.10;;;15.60;67.90;;;;;;5077993;28;20235;-84
2022/03/11 15:37:15;;;;;;;10.18;9.88;;;15.50;67.80;;;;;;5089181;28;20257;-84
2022/03/11 15:42:30;;;;;;;10.55;10.25;;;15.20;69.20;;;;;;5079941;28;20334;-83
2022/03/11 15:44:58;;;;;;;10.13;9.82;;;15.20;69.40;;;;;;5085486;28;20238;-83
2022/03/11 15:47:28;;;;;;;10.43;10.13;;;14.70;70.20;;;;;;5091696;28;20234;-84
2022/03/11 15:49:59;;;;;;;10.18;9.88;;;14.60;72.00;;;;;;5095806;28;20242;-81
2022/03/11 15:52:34;;;;;;;10.40;10.10;;;14.90;71.80;;;;;;5098446;28;20222;-82
2022/03/11 15:58:20;;;;;;;10.10;9.80;;;14.70;72.00;;;;;;5094391;28;20279;-82
2022/03/11 16:01:09;;;;;;;10.00;9.70;;;14.90;71.90;;;;;;5097518;28;20234;-82
2022/03/11 16:03:38;;;;;;;12.77;12.38;;;14.70;72.50;;;;;;5097274;28;20214;-82
2022/03/11 16:06:06;;;;;;;10.10;9.80;;;14.60;72.60;;;;;;5097059;28;20229;-82
2022/03/11 16:08:37;;;;;;;10.02;9.73;;;13.80;73.30;;;;;;5097136;28;20292;-82
2022/03/11 16:11:21;;;;;;;9.90;9.60;;;13.70;74.30;;;;;;5091293;28;20240;-82
2022/03/11 16:13:51;;;;;;;9.95;9.65;;;13.30;75.00;;;;;;5085037;28;20765;-82
2022/03/11 16:16:23;;;;;;;9.47;9.17;;;13.30;75.70;;;;;;5087245;28;20222;-82
2022/03/11 16:18:53;;;;;;;9.23;9.03;;;13.00;75.80;;;;;;5089946;28;20234;-84
2022/03/11 16:21:27;;;;;;;9.70;9.40;;;12.60;76.00;;;;;;5089963;28;20233;-82
2022/03/11 16:24:10;;;;;;;9.50;9.20;;;12.30;77.60;;;;;;5084455;28;20240;-81
2022/03/11 16:26:38;;;;;;;10.00;9.70;;;11.90;77.70;;;;;;5082239;28;20280;-80
2022/03/11 16:29:08;;;;;;;9.63;9.33;;;11.80;78.80;;;;;;5081672;28;20264;-80
2022/03/11 16:31:36;;;;;;;10.10;9.80;;;11.90;79.00;;;;;;5084265;28;20245;-80
2022/03/11 16:34:08;;;;;;;9.77;9.47;;;11.40;79.50;;;;;;5084138;28;20214;-79
2022/03/11 16:36:37;;;;;;;10.20;9.90;;;11.30;79.40;;;;;;5082855;28;20230;-81
2022/03/11 16:39:05;;;;;;;10.20;9.90;;;11.10;80.70;;;;;;5083540;28;20238;-80
2022/03/11 16:41:33;;;;;;;10.03;9.73;;;10.80;80.30;;;;;;5081006;28;20233;-80
2022/03/11 16:44:01;;;;;;;10.23;9.93;;;10.60;81.10;;;;;;5080760;28;20234;-80
2022/03/11 16:46:30;;;;;;;9.97;9.67;;;10.40;82.70;;;;;;5083533;28;20245;-79
2022/03/11 16:48:58;;;;;;;10.10;9.80;;;10.20;81.80;;;;;;5084970;28;20238;-80
2022/03/11 16:51:28;;;;;;;10.30;10.00;;;10.00;82.10;;;;;;5093011;28;20230;-80
2022/03/11 16:53:56;;;;;;;9.93;9.63;;;9.90;82.80;;;;;;5093511;28;20227;-81
2022/03/11 16:56:24;;;;;;;9.93;9.63;;;9.80;83.10;;;;;;5090508;28;20250;-80
2022/03/11 16:58:52;;;;;;;10.07;9.77;;;9.60;83.50;;;;;;5091881;28;20230;-80
2022/03/11 17:01:22;;;;;;;9.87;9.57;;;9.60;83.90;;;;;;5086024;28;20296;-80
2022/03/11 17:03:50;;;;;;;10.00;9.70;;;9.40;83.70;;;;;;5083957;28;20238;-82
2022/03/11 17:06:19;;;;;;;9.70;9.40;;;9.20;84.00;;;;;;5079244;28;20229;-80
2022/03/11 17:08:50;;;;;;;9.80;9.50;;;9.20;84.40;;;;;;5081511;28;20321;-80
2022/03/11 17:11:47;;;;;;;9.83;9.53;;;9.00;85.40;;;;;;5081668;28;20241;-80
2022/03/11 17:14:15;;;;;;;9.60;9.30;;;8.80;86.60;;;;;;5079699;28;20230;-81
2022/03/11 17:16:45;;;;;;;9.47;9.17;;;8.70;86.90;;;;;;5082353;28;20238;-81
2022/03/11 17:19:13;;;;;;;9.43;9.13;;;8.60;86.90;;;;;;5081051;28;20238;-80
2022/03/11 17:21:43;;;;;;;9.70;9.40;;;8.50;86.80;;;;;;5079629;28;20261;-81
2022/03/11 17:24:13;;;;;;;9.63;9.33;;;8.50;87.50;;;;;;5080895;28;20234;-81
2022/03/11 17:26:42;;;;;;;9.30;9.00;;;8.40;86.90;;;;;;5080296;28;20321;-80
2022/03/11 17:29:13;;;;;;;10.07;9.77;;;8.30;87.20;;;;;;5080395;28;20384;-80
2022/03/11 17:31:47;;;;;;;9.70;9.40;;;8.30;87.20;;;;;;5080018;28;20296;-81
2022/03/11 17:34:20;;;;;;;9.23;8.93;;;8.30;87.30;;;;;;5094735;28;20238;-79
2022/03/11 17:36:49;;;;;;;9.17;8.87;;;8.10;87.30;;;;;;5100132;28;20237;-81
2022/03/11 17:39:18;;;;;;;9.27;8.97;;;8.00;87.60;;;;;;5102016;28;20283;-82
2022/03/11 17:41:53;;;;;;;9.30;9.00;;;8.00;87.40;;;;;;5101315;28;20233;-82
2022/03/11 17:44:30;;;;;;;9.30;9.00;;;7.90;87.00;;;;;;5099517;28;20410;-81
2022/03/11 17:46:58;;;;;;;9.30;9.00;;;7.90;87.10;;;;;;5079196;28;20268;-80
2022/03/11 17:49:26;;;;;;;9.30;9.00;;;7.80;88.00;;;;;;5080457;28;20288;-79
2022/03/11 17:51:59;;;;;;;9.20;8.90;;;7.70;87.90;;;;;;5081898;28;20229;-79
2022/03/11 17:54:28;;;;;;;9.23;8.93;;;7.60;88.00;;;;;;5081819;28;20240;-81
2022/03/11 17:56:58;;;;;;;9.23;8.93;;;7.60;88.30;;;;;;5080779;28;20229;-81
2022/03/11 17:59:29;;;;;;;9.30;9.00;;;7.50;88.70;;;;;;5087963;28;20230;-80
2022/03/11 18:01:57;;;;;;;9.40;9.10;;;7.40;88.40;;;;;;5101180;28;20223;-81
2022/03/11 18:04:25;;;;;;;8.80;8.60;;;7.40;87.70;;;;;;5101510;28;20229;-80
2022/03/11 18:06:55;;;;;;;9.03;8.83;;;7.30;86.60;;;;;;5101541;28;20273;-81
2022/03/11 18:09:24;;;;;;;8.73;8.53;;;7.30;86.00;;;;;;5101509;28;20229;-81
2022/03/11 18:11:53;;;;;;;9.50;9.20;;;7.30;86.40;;;;;;5100887;28;20328;-81
2022/03/11 18:14:22;;;;;;;9.27;8.97;;;7.20;87.00;;;;;;5100803;28;20218;-81
2022/03/11 18:16:49;;;;;;;9.03;8.80;;;7.10;86.80;;;;;;5101050;28;20609;-79
2022/03/11 18:19:18;;;;;;;9.13;8.83;;;7.00;86.00;;;;;;5100420;28;20229;-80
2022/03/11 18:21:46;;;;;;;8.90;8.70;;;6.90;86.40;;;;;;5122392;22;20326;-82
2022/03/11 18:24:15;;;;;;;9.00;8.80;;;6.90;86.10;;;;;;5071485;28;20248;-81
2022/03/11 18:26:44;;;;;;;9.40;9.10;;;6.80;85.80;;;;;;5070639;28;20227;-80
2022/03/11 18:29:24;;;;;;;9.40;9.10;;;6.80;86.00;;;;;;5070789;28;20229;-82
2022/03/11 18:31:52;;;;;;;9.23;8.93;;;6.70;86.30;;;;;;5071150;28;20261;-81
2022/03/11 18:34:21;;;;;;;8.90;8.70;;;6.60;85.50;;;;;;5070727;28;20221;-81
2022/03/11 18:36:51;;;;;;;8.83;8.63;;;6.50;86.20;;;;;;5071447;28;20223;-82
2022/03/11 18:39:20;;;;;;;9.00;8.80;;;6.40;85.50;;;;;;5079035;28;20214;-81
2022/03/11 18:41:50;;;;;;;9.40;9.10;;;6.40;85.60;;;;;;5074530;28;20231;-80
2022/03/11 18:44:30;;;;;;;9.23;8.93;;;6.40;85.20;;;;;;5070485;28;20234;-83
2022/03/11 18:46:58;;;;;;;8.90;8.70;;;6.30;85.70;;;;;;5067480;28;20701;-81
2022/03/11 18:49:28;;;;;;;9.20;8.90;;;6.20;85.40;;;;;;5070860;28;20226;-83